This is the latest recevied weather packets stored in our database for station/object DM0MR. If no packets are shown the sender has not sent any weather packets the latest 1 day(s).
| Time | Temp. | Humidity | Pressure | Rain* | Wind** | Luminosity | Snow |
|---|---|---|---|---|---|---|---|
| 1836274698 | 12.22° C | 96% | 1016.3 hPa | 0 mm | 0 m/s | - | - |
| 1836274401 | 12.78° C | 96% | 1016.5 hPa | 0 mm | 0 m/s | - | - |
| 1836274248 | 12.22° C | 96% | 1016.3 hPa | 0 mm | 0 m/s | - | - |
| 1836274098 | 12.78° C | 96% | 1016.6 hPa | 0 mm | 0 m/s | - | - |
| 1778003799 | 17.22° C | 76% | 996 hPa | 0 mm | 0.45 m/s, 184° | - | - |
| 1778000199 | 18.33° C | 76% | 996.5 hPa | 0 mm | 0 m/s | - | - |
| 1777999300 | 18.33° C | 75% | 996.5 hPa | 0 mm | 0.45 m/s, 192° | - | - |
| 1777997500 | 20° C | 69% | 996.6 hPa | 0 mm | 0.89 m/s, 188° | - | - |
| 1777995700 | 20° C | 67% | 996.7 hPa | 0 mm | 0.89 m/s, 182° | - | - |
| 1777994800 | 20° C | 66% | 996.7 hPa | 0 mm | 1.34 m/s, 203° | - | - |
| 1777992100 | 20.56° C | 66% | 997 hPa | 0 mm | 0 m/s | - | - |
| 1777991201 | 20.56° C | 64% | 997.2 hPa | 0 mm | 0.45 m/s, 246° | - | - |
| 1777990299 | 21.11° C | 64% | 997.4 hPa | 0 mm | 0 m/s | - | - |
| 1777987600 | 20° C | 70% | 997.9 hPa | 0.25 mm | 0.45 m/s, 201° | - | - |
| 1777985799 | 20° C | 74% | 998.1 hPa | 0.25 mm | 0 m/s | - | - |
| 1777984899 | 19.44° C | 75% | 998.4 hPa | 0 mm | 0.45 m/s, 184° | - | - |
| 1777983998 | 18.89° C | 75% | 998.6 hPa | 0 mm | 0 m/s | - | - |
| 1777982200 | 18.33° C | 77% | 998.7 hPa | 0 mm | 0.45 m/s, 176° | - | - |
| 1777980400 | 18.33° C | 80% | 998.9 hPa | 0 mm | 0 m/s | - | - |
| 1777979500 | 18.33° C | 82% | 999 hPa | 0 mm | 0.45 m/s, 181° | - | - |
| 1777977699 | 17.78° C | 86% | 999.4 hPa | 0 mm | 0 m/s | - | - |
| 1777975899 | 16.67° C | 89% | 999.5 hPa | 0 mm | 0 m/s | - | - |
| 1777975000 | 16.67° C | 89% | 999.5 hPa | 0 mm | 0 m/s | - | - |
| 1777974099 | 16.67° C | 91% | 999.6 hPa | 0 mm | 0 m/s | - | - |
| 1777973199 | 16.67° C | 92% | 999.8 hPa | 0 mm | 0 m/s | - | - |
* Rain latest hour (hover to see other rain measurements)
** Current wind speed in m/s (hover to see current wind gust speed)